Time;durP1;ratioP1;P1;durP2;ratioP2;P2;SDS_P1;SDS_P2;PMS_P1;PMS_P2;Temp;Humidity;BMP_temperature;BMP_pressure;BME280_temperature;BME280_humidity;BME280_pressure;Samples;Min_cycle;Max_cycle;Signal;HPM_P1;HPM_P2
2023/05/05 00:01:02;;;;;;;4.72;3.60;;;;;;;18.78;26.54;101023.97;5026402;28;20103;-66
2023/05/05 00:03:29;;;;;;;6.30;3.90;;;;;;;18.78;27.13;101026.75;5009034;28;20144;-68
2023/05/05 00:05:57;;;;;;;5.05;3.85;;;;;;;18.78;27.36;101034.22;5026493;28;20050;-67
2023/05/05 00:08:27;;;;;;;5.60;3.78;;;;;;;18.79;27.22;101030.41;5026498;28;20067;-67
2023/05/05 00:10:56;;;;;;;4.78;4.25;;;;;;;18.75;27.35;101024.34;5026356;28;20049;-66
2023/05/05 00:13:24;;;;;;;5.72;3.90;;;;;;;18.74;27.49;101028.16;5027335;28;20041;-66
2023/05/05 00:15:53;;;;;;;5.93;4.05;;;;;;;18.76;27.01;101026.06;5024830;28;20064;-66
2023/05/05 00:18:21;;;;;;;5.30;4.10;;;;;;;18.74;27.20;101019.84;5027164;28;20107;-66
2023/05/05 00:20:49;;;;;;;5.18;4.00;;;;;;;18.73;27.40;101008.94;5026260;28;20504;-67
2023/05/05 00:23:17;;;;;;;5.50;3.92;;;;;;;18.72;27.23;101019.16;5026847;28;20049;-66
2023/05/05 00:25:46;;;;;;;5.40;3.55;;;;;;;18.72;26.88;101024.69;5026472;28;20034;-67
2023/05/05 00:28:14;;;;;;;6.13;3.83;;;;;;;18.70;27.40;101028.72;5026799;28;20452;-68
2023/05/05 00:30:42;;;;;;;3.95;3.30;;;;;;;18.69;27.11;101027.00;5025289;28;20460;-67
2023/05/05 00:33:11;;;;;;;6.57;4.00;;;;;;;18.67;27.27;101026.31;5027374;28;20042;-67
2023/05/05 00:35:38;;;;;;;5.07;3.88;;;;;;;18.65;27.13;101029.25;5026372;28;20047;-67
2023/05/05 00:38:07;;;;;;;5.28;4.07;;;;;;;18.64;27.04;101023.88;5025745;28;20050;-67
2023/05/05 00:40:35;;;;;;;5.00;3.60;;;;;;;18.63;27.31;101033.28;5026297;28;20103;-67
2023/05/05 00:43:06;;;;;;;5.35;3.72;;;;;;;18.63;27.72;101038.81;5008859;28;20042;-67
2023/05/05 00:45:35;;;;;;;5.00;3.40;;;;;;;18.60;27.41;101044.72;5026632;28;20049;-67
2023/05/05 00:48:04;;;;;;;4.53;3.40;;;;;;;18.58;27.86;101044.03;5025886;28;20457;-67
2023/05/05 00:50:32;;;;;;;5.85;3.83;;;;;;;18.56;27.82;101038.66;5009039;28;20057;-67
2023/05/05 00:53:01;;;;;;;4.72;4.00;;;;;;;18.57;27.87;101042.31;5024739;28;20053;-67
2023/05/05 00:55:30;;;;;;;5.97;3.88;;;;;;;18.54;27.82;101039.91;5030799;28;20128;-67
2023/05/05 00:57:59;;;;;;;5.03;3.70;;;;;;;18.51;27.81;101039.22;5028054;28;20041;-67
2023/05/05 01:00:28;;;;;;;5.75;3.60;;;;;;;18.52;27.77;101034.53;5028709;28;20050;-68
2023/05/05 01:02:57;;;;;;;4.80;3.75;;;;;;;18.48;27.53;101030.38;5010958;28;20527;-67
2023/05/05 01:05:27;;;;;;;5.03;3.78;;;;;;;18.47;27.93;101028.66;5029263;28;20576;-67
2023/05/05 01:08:09;;;;;;;5.22;3.58;;;;;;;18.47;27.78;101029.50;5029972;28;20524;-67
2023/05/05 01:10:44;;;;;;;4.50;3.80;;;;;;;18.41;28.10;101032.13;5011555;28;20041;-67
2023/05/05 01:13:32;;;;;;;5.10;4.05;;;;;;;18.40;27.86;101031.28;5029237;28;20284;-67
2023/05/05 01:16:10;;;;;;;5.38;3.78;;;;;;;18.39;28.40;101035.09;5011175;28;20073;-67
2023/05/05 01:18:45;;;;;;;4.78;3.60;;;;;;;18.36;28.09;101042.91;5029961;28;20099;-67
2023/05/05 01:21:17;;;;;;;5.25;3.53;;;;;;;18.34;28.19;101039.44;5028285;28;20531;-67
2023/05/05 01:24:12;;;;;;;4.65;3.58;;;;;;;18.30;28.46;101041.75;5029974;28;20543;-67
2023/05/05 01:27:00;;;;;;;6.90;3.70;;;;;;;18.28;28.51;101048.50;5028752;28;20049;-68
2023/05/05 01:29:40;;;;;;;5.40;3.78;;;;;;;18.26;28.72;101040.38;5029570;28;20041;-67
2023/05/05 01:32:11;;;;;;;5.15;3.95;;;;;;;18.22;28.32;101044.56;5025077;28;20066;-67
2023/05/05 01:34:45;;;;;;;4.80;4.00;;;;;;;18.18;28.81;101048.72;5011910;28;20045;-67
2023/05/05 01:37:18;;;;;;;5.00;3.80;;;;;;;18.14;28.65;101048.19;5027724;28;20042;-67
2023/05/05 01:39:52;;;;;;;4.68;4.05;;;;;;;18.10;28.87;101043.19;5028844;28;20052;-67
2023/05/05 01:42:25;;;;;;;5.38;4.13;;;;;;;18.05;28.52;101052.06;5027717;28;20049;-67
2023/05/05 01:44:54;;;;;;;7.22;4.18;;;;;;;17.99;28.60;101049.97;5029768;28;20037;-67
2023/05/05 01:47:24;;;;;;;5.57;4.15;;;;;;;17.98;28.60;101045.47;5028513;28;20041;-66
2023/05/05 01:49:52;;;;;;;6.40;4.18;;;;;;;17.93;28.95;101045.16;5027999;28;20058;-67
2023/05/05 01:52:21;;;;;;;5.07;3.83;;;;;;;17.89;28.94;101038.28;5028194;28;20547;-68
2023/05/05 01:54:50;;;;;;;4.88;3.72;;;;;;;17.87;29.27;101040.34;5027348;28;20081;-67
2023/05/05 01:57:20;;;;;;;4.70;3.72;;;;;;;17.83;29.37;101041.72;5026722;28;20049;-67
2023/05/05 01:59:51;;;;;;;6.75;3.50;;;;;;;17.80;28.82;101044.88;5027657;28;20045;-67
2023/05/05 02:02:21;;;;;;;6.95;4.10;;;;;;;17.78;28.96;101049.72;5027444;28;20084;-67
2023/05/05 02:04:54;;;;;;;5.00;3.75;;;;;;;17.75;29.28;101050.06;5027314;28;20054;-67
2023/05/05 02:07:23;;;;;;;4.85;3.83;;;;;;;17.69;29.06;101045.19;5028511;28;20048;-67
2023/05/05 02:09:52;;;;;;;5.28;4.00;;;;;;;17.68;29.10;101055.41;5028368;28;20049;-67
2023/05/05 02:12:22;;;;;;;5.00;4.00;;;;;;;17.67;29.22;101066.66;5028574;28;20077;-67
2023/05/05 02:14:52;;;;;;;5.63;4.35;;;;;;;17.64;29.55;101067.88;5027192;28;20468;-67
2023/05/05 02:17:21;;;;;;;6.03;3.90;;;;;;;17.62;29.77;101075.50;5026197;28;20113;-67
2023/05/05 02:19:53;;;;;;;5.05;3.95;;;;;;;17.61;30.03;101071.00;5028186;28;20095;-67
2023/05/05 02:22:20;;;;;;;5.20;4.10;;;;;;;17.57;29.98;101075.13;5010747;28;20060;-67
2023/05/05 02:24:48;;;;;;;5.50;3.95;;;;;;;17.54;29.37;101082.94;5026892;28;20045;-67
2023/05/05 02:27:21;;;;;;;4.97;4.05;;;;;;;17.52;30.08;101088.66;5026241;28;20087;-67
2023/05/05 02:29:53;;;;;;;5.68;4.45;;;;;;;17.48;30.29;101078.97;5027789;28;20042;-67
2023/05/05 02:32:34;;;;;;;5.65;4.30;;;;;;;17.46;30.67;101086.59;5027869;28;20049;-67
2023/05/05 02:35:12;;;;;;;5.60;4.22;;;;;;;17.41;30.85;101080.69;5028492;28;20048;-67
2023/05/05 02:37:44;;;;;;;4.85;3.90;;;;;;;17.35;29.82;101092.44;5026133;28;20498;-66
2023/05/05 02:40:17;;;;;;;4.97;3.72;;;;;;;17.31;30.03;101094.72;5027478;28;20045;-67
2023/05/05 02:42:50;;;;;;;5.75;3.88;;;;;;;17.28;29.99;101092.28;5026627;28;20100;-67
2023/05/05 02:45:22;;;;;;;4.95;3.95;;;;;;;17.26;30.59;101099.00;5026811;28;20055;-67
2023/05/05 02:47:50;;;;;;;6.03;4.40;;;;;;;17.20;30.61;101085.88;5026467;28;20251;-66
2023/05/05 02:50:21;;;;;;;4.90;4.35;;;;;;;17.19;30.97;101096.09;5026696;28;20080;-67
2023/05/05 02:53:00;;;;;;;5.68;4.22;;;;;;;17.14;30.70;101089.34;5027626;28;20125;-67
2023/05/05 02:55:33;;;;;;;6.80;4.35;;;;;;;17.14;30.76;101092.13;5028051;28;20451;-67
2023/05/05 02:58:06;;;;;;;5.85;4.20;;;;;;;17.11;31.25;101085.00;5026322;28;20044;-66
2023/05/05 03:00:45;;;;;;;6.30;4.50;;;;;;;17.08;31.14;101085.34;5026360;28;20046;-67
2023/05/05 03:03:21;;;;;;;5.47;4.20;;;;;;;17.07;31.15;101093.84;5026654;28;20523;-66
2023/05/05 03:06:00;;;;;;;5.93;4.30;;;;;;;17.05;31.56;101085.72;5025582;28;20050;-67
2023/05/05 03:08:32;;;;;;;6.97;4.80;;;;;;;17.01;31.29;101087.06;5026546;28;20766;-67
2023/05/05 03:11:04;;;;;;;5.60;4.85;;;;;;;16.97;31.22;101086.56;5026232;28;20049;-67
2023/05/05 03:13:36;;;;;;;6.82;4.90;;;;;;;16.97;31.63;101094.00;5009642;28;20058;-67
2023/05/05 03:16:07;;;;;;;5.75;4.57;;;;;;;16.96;31.38;101090.31;5025868;28;20536;-66
2023/05/05 03:18:37;;;;;;;4.90;3.88;;;;;;;16.94;31.39;101088.75;5026498;28;20556;-67
2023/05/05 03:21:07;;;;;;;5.25;4.03;;;;;;;16.96;31.53;101100.53;5025501;28;20072;-66
2023/05/05 03:23:39;;;;;;;5.70;4.32;;;;;;;16.93;31.83;101100.84;5026155;28;20335;-67
2023/05/05 03:26:17;;;;;;;6.05;4.30;;;;;;;16.94;31.94;101102.59;5025987;28;20413;-67
2023/05/05 03:28:45;;;;;;;5.45;4.57;;;;;;;16.92;32.07;101097.22;5026422;28;20073;-67
2023/05/05 03:31:19;;;;;;;7.18;4.78;;;;;;;16.92;31.93;101104.66;5025210;28;20512;-66
2023/05/05 03:33:51;;;;;;;5.85;4.28;;;;;;;16.89;31.82;101099.47;5027346;28;20297;-67
2023/05/05 03:36:23;;;;;;;7.57;4.63;;;;;;;16.91;32.11;101097.38;5025634;28;20084;-67
2023/05/05 03:38:54;;;;;;;10.13;4.97;;;;;;;16.86;31.65;101091.50;5026545;28;20037;-67
2023/05/05 03:41:23;;;;;;;7.28;4.50;;;;;;;16.86;32.18;101092.38;5024736;28;20456;-66
2023/05/05 03:43:51;;;;;;;6.85;5.30;;;;;;;16.84;32.15;101099.97;5026468;28;20663;-67
2023/05/05 03:46:20;;;;;;;6.85;4.75;;;;;;;16.83;31.92;101089.06;5025896;28;20505;-67
2023/05/05 03:48:48;;;;;;;7.43;5.25;;;;;;;16.79;32.09;101090.47;5026322;28;20037;-67
2023/05/05 03:51:16;;;;;;;6.90;5.10;;;;;;;16.75;32.12;101083.53;5025157;28;20382;-66
2023/05/05 03:53:45;;;;;;;7.00;5.30;;;;;;;16.73;32.60;101097.53;5027418;28;20041;-66
2023/05/05 03:56:13;;;;;;;6.82;5.45;;;;;;;16.69;32.58;101095.25;5026818;28;20053;-67
2023/05/05 03:58:41;;;;;;;7.28;5.00;;;;;;;16.66;32.39;101095.63;5025568;28;20329;-67
2023/05/05 04:01:09;;;;;;;6.47;5.18;;;;;;;16.63;32.54;101107.88;5026053;28;20045;-67
2023/05/05 04:03:37;;;;;;;6.25;4.60;;;;;;;16.61;32.80;101109.94;5026348;28;20053;-67
2023/05/05 04:06:05;;;;;;;6.55;4.80;;;;;;;16.59;32.62;101104.56;5025610;28;20060;-66
2023/05/05 04:08:34;;;;;;;6.20;4.85;;;;;;;16.57;32.96;101106.66;5025885;28;20045;-68
2023/05/05 04:11:03;;;;;;;6.65;5.30;;;;;;;16.58;32.97;101110.25;5025603;28;20129;-65
2023/05/05 04:13:33;;;;;;;6.28;4.95;;;;;;;16.53;33.13;101110.78;5026600;28;20079;-65
2023/05/05 04:16:01;;;;;;;6.53;5.10;;;;;;;16.52;33.25;101125.63;5024479;28;20080;-66
2023/05/05 04:18:30;;;;;;;7.03;5.25;;;;;;;16.51;33.00;101125.78;5026070;28;20045;-67
2023/05/05 04:20:58;;;;;;;6.88;5.45;;;;;;;16.51;32.98;101123.88;5025403;28;20042;-68
2023/05/05 04:23:27;;;;;;;6.05;4.85;;;;;;;16.51;33.51;101139.59;5026041;28;20049;-68
2023/05/05 04:25:55;;;;;;;7.13;5.45;;;;;;;16.50;33.71;101137.84;5025228;28;20727;-67
2023/05/05 04:28:26;;;;;;;7.30;5.20;;;;;;;16.51;33.45;101148.75;5027070;28;20046;-67
2023/05/05 04:30:55;;;;;;;7.25;5.30;;;;;;;16.50;33.44;101147.00;5029778;28;20503;-67
2023/05/05 04:33:23;;;;;;;6.75;4.95;;;;;;;16.51;33.85;101147.88;5029125;28;20136;-69
2023/05/05 04:35:51;;;;;;;6.40;4.88;;;;;;;16.51;33.57;101151.50;5012641;28;20041;-67
2023/05/05 04:38:20;;;;;;;6.43;5.35;;;;;;;16.53;33.60;101165.16;5029350;28;20076;-68
2023/05/05 04:40:49;;;;;;;6.80;5.18;;;;;;;16.54;34.12;101164.13;5012218;28;20069;-66
2023/05/05 04:43:17;;;;;;;6.35;4.88;;;;;;;16.55;33.75;101163.97;5030039;28;20041;-66
2023/05/05 04:45:53;;;;;;;8.77;5.97;;;;;;;16.58;34.84;101160.84;5028818;28;20066;-67
2023/05/05 04:48:24;;;;;;;8.07;5.57;;;;;;;16.55;34.30;101161.22;5029797;28;20049;-66
2023/05/05 04:50:52;;;;;;;8.20;5.32;;;;;;;16.56;33.67;101164.84;5030753;28;20706;-67
2023/05/05 04:53:20;;;;;;;6.30;5.32;;;;;;;16.56;34.39;101159.31;5030417;28;20349;-67
2023/05/05 04:55:48;;;;;;;7.32;5.47;;;;;;;16.56;34.49;101149.13;5028862;28;20057;-67
2023/05/05 04:58:17;;;;;;;7.00;6.00;;;;;;;16.55;34.23;101152.91;5029457;28;20053;-67
2023/05/05 05:00:45;;;;;;;7.93;6.25;;;;;;;16.54;34.59;101156.72;5029042;28;20513;-68
2023/05/05 05:03:15;;;;;;;7.68;5.60;;;;;;;16.54;34.11;101158.59;5029169;28;20045;-66
2023/05/05 05:05:43;;;;;;;7.85;6.22;;;;;;;16.51;34.75;101161.69;5029480;28;20056;-66
2023/05/05 05:08:11;;;;;;;7.38;5.63;;;;;;;16.49;34.35;101163.78;5030106;28;20076;-67
2023/05/05 05:10:40;;;;;;;7.30;5.90;;;;;;;16.47;34.92;101169.47;5029953;28;20034;-66
2023/05/05 05:13:08;;;;;;;7.43;6.00;;;;;;;16.46;35.20;101164.97;5013618;28;20053;-67
2023/05/05 05:15:39;;;;;;;7.80;5.82;;;;;;;16.45;35.13;101160.47;5029968;28;20060;-67
2023/05/05 05:18:07;;;;;;;7.65;5.80;;;;;;;16.48;35.43;101170.31;5030446;28;20048;-67
2023/05/05 05:20:36;;;;;;;7.03;5.43;;;;;;;16.51;35.03;101169.97;5013099;28;20298;-67
2023/05/05 05:23:04;;;;;;;8.57;5.57;;;;;;;16.51;35.09;101179.13;5012757;28;20072;-67
2023/05/05 05:25:36;;;;;;;7.50;5.22;;;;;;;16.54;35.17;101189.88;5013396;28;20076;-67
2023/05/05 05:28:04;;;;;;;8.10;5.85;;;;;;;16.58;35.34;101182.09;5029306;28;20050;-69
2023/05/05 05:30:43;;;;;;;7.18;6.07;;;;;;;16.61;35.46;101190.94;5012409;28;20545;-67
2023/05/05 05:33:12;;;;;;;8.07;6.40;;;;;;;16.66;35.95;101192.34;5013687;28;20053;-67
2023/05/05 05:35:42;;;;;;;7.13;5.47;;;;;;;16.72;35.60;101195.31;5028720;28;20076;-67
2023/05/05 05:38:10;;;;;;;8.13;6.45;;;;;;;16.74;35.61;101189.63;5029512;28;20110;-66
2023/05/05 05:40:38;;;;;;;7.78;6.35;;;;;;;16.79;36.06;101193.59;5011702;28;20061;-67
2023/05/05 05:43:06;;;;;;;7.57;6.10;;;;;;;16.82;36.23;101189.66;5013097;28;20463;-67
2023/05/05 05:45:36;;;;;;;9.23;7.20;;;;;;;16.88;36.21;101188.97;5012376;28;20504;-67
2023/05/05 05:48:06;;;;;;;8.77;7.18;;;;;;;16.92;36.25;101187.59;5028533;28;20152;-67
2023/05/05 05:50:34;;;;;;;7.50;5.82;;;;;;;16.96;36.08;101180.69;5029396;28;20088;-67
2023/05/05 05:53:04;;;;;;;8.73;6.82;;;;;;;17.04;36.05;101188.19;5029881;28;20077;-68
2023/05/05 05:55:32;;;;;;;9.20;7.38;;;;;;;17.07;36.47;101191.50;5028966;28;20133;-66
2023/05/05 05:58:01;;;;;;;7.93;6.55;;;;;;;17.13;36.14;101192.69;5011569;28;20424;-66
2023/05/05 06:00:29;;;;;;;9.73;7.30;;;;;;;17.18;36.19;101193.06;5012271;28;20080;-66
2023/05/05 06:03:03;;;;;;;8.45;6.45;;;;;;;17.24;36.04;101204.28;5012321;28;20099;-66
2023/05/05 06:05:35;;;;;;;8.00;6.30;;;;;;;17.27;36.11;101194.81;5012074;28;20052;-65
2023/05/05 06:08:05;;;;;;;9.65;7.38;;;;;;;17.37;36.54;101198.28;5011222;28;20057;-66
2023/05/05 06:10:37;;;;;;;8.05;6.78;;;;;;;17.43;36.64;101199.50;5009761;28;20041;-67
2023/05/05 06:13:09;;;;;;;8.60;6.47;;;;;;;17.48;36.32;101195.19;5012008;28;20073;-67
2023/05/05 06:15:41;;;;;;;9.88;6.55;;;;;;;17.56;36.59;101197.09;5011865;28;20049;-67
2023/05/05 06:18:12;;;;;;;9.20;7.10;;;;;;;17.67;36.55;101199.50;5012694;28;20046;-67
2023/05/05 06:20:42;;;;;;;9.55;7.13;;;;;;;17.76;36.73;101201.28;5010341;28;20046;-67
2023/05/05 06:23:21;;;;;;;8.88;7.10;;;;;;;17.90;36.54;101200.56;5012693;28;20136;-67
2023/05/05 06:25:54;;;;;;;9.20;7.32;;;;;;;17.95;36.31;101191.75;5010959;28;20049;-67
2023/05/05 06:28:22;;;;;;;8.82;7.32;;;;;;;18.06;36.24;101192.25;5029435;28;20055;-67
2023/05/05 06:30:50;;;;;;;9.98;7.65;;;;;;;18.18;36.32;101190.00;5011775;28;20048;-66
2023/05/05 06:33:18;;;;;;;9.88;7.38;;;;;;;18.32;36.22;101188.38;5012148;28;20056;-66
2023/05/05 06:35:48;;;;;;;9.80;7.65;;;;;;;18.48;36.62;101192.00;5028428;28;20067;-66
2023/05/05 06:38:16;;;;;;;10.63;7.30;;;;;;;18.65;35.88;101180.84;5029509;28;20101;-67
2023/05/05 06:40:47;;;;;;;11.30;7.95;;;;;;;18.86;36.06;101192.22;5011096;28;20057;-67
2023/05/05 06:43:15;;;;;;;8.50;6.90;;;;;;;19.01;35.88;101189.53;5029932;28;20073;-68
2023/05/05 06:45:48;;;;;;;10.00;7.72;;;;;;;19.19;35.66;101199.31;5011091;28;20041;-67
2023/05/05 06:48:16;;;;;;;8.95;6.97;;;;;;;19.37;35.29;101196.31;5029473;28;20115;-67
2023/05/05 06:50:44;;;;;;;8.88;7.22;;;;;;;19.54;35.38;101194.28;5010983;28;20042;-67
2023/05/05 06:53:12;;;;;;;8.65;6.63;;;;;;;19.69;35.52;101199.88;5029031;28;20440;-67
2023/05/05 06:55:43;;;;;;;8.25;6.53;;;;;;;19.85;34.90;101203.38;5028502;28;20038;-70
2023/05/05 06:58:12;;;;;;;8.70;6.70;;;;;;;19.97;34.78;101210.22;5028980;28;20048;-68
2023/05/05 07:00:41;;;;;;;8.45;6.47;;;;;;;20.08;34.39;101224.72;5025404;28;20041;-70
2023/05/05 07:03:35;;;;;;;7.97;6.25;;;;;;;20.20;34.42;101226.84;5046468;23;20049;-85
2023/05/05 07:06:27;;;;;;;7.85;5.88;;;;;;;20.28;33.82;101224.00;5000660;28;20100;-84
2023/05/05 07:09:53;;;;;;;7.22;4.95;;;;;;;20.39;33.84;101231.00;5024080;28;20095;-86
2023/05/05 07:12:21;;;;;;;7.55;5.68;;;;;;;20.45;33.62;101233.03;5027775;28;20111;-81
2023/05/05 07:14:50;;;;;;;5.90;4.90;;;;;;;20.54;33.54;101233.78;5022438;28;20543;-82
2023/05/05 07:17:18;;;;;;;6.22;4.75;;;;;;;20.58;33.24;101235.16;5027312;28;20532;-82
2023/05/05 07:19:47;;;;;;;6.22;4.60;;;;;;;20.61;33.13;101234.81;5008535;28;20088;-81
2023/05/05 07:22:15;;;;;;;5.70;4.22;;;;;;;20.64;32.45;101243.63;5002933;28;20041;-82
2023/05/05 07:24:42;;;;;;;6.40;4.03;;;;;;;20.66;32.80;101244.31;5008762;28;20087;-82
2023/05/05 07:27:10;;;;;;;6.43;4.50;;;;;;;20.67;32.32;101234.91;5019967;28;20133;-83
2023/05/05 07:29:38;;;;;;;7.45;4.43;;;;;;;20.68;32.27;101233.00;5005641;28;20042;-80
2023/05/05 07:32:07;;;;;;;5.40;4.28;;;;;;;20.70;32.59;101242.00;5018711;28;20042;-80
2023/05/05 07:34:51;;;;;;;5.43;4.35;;;;;;;20.67;32.43;101243.25;5004955;28;20049;-83
2023/05/05 07:37:19;;;;;;;6.60;4.55;;;;;;;20.66;32.39;101247.09;5011795;28;20060;-84
2023/05/05 07:39:47;;;;;;;7.03;4.93;;;;;;;20.68;32.14;101247.78;5025429;28;20501;-80
2023/05/05 07:42:15;;;;;;;6.00;4.35;;;;;;;20.70;32.29;101253.13;5029324;28;20107;-81
2023/05/05 07:44:43;;;;;;;6.45;4.32;;;;;;;20.71;32.44;101252.06;5014356;28;20053;-81
2023/05/05 07:47:12;;;;;;;6.85;4.90;;;;;;;20.75;32.55;101250.63;5024873;28;20608;-81
2023/05/05 07:49:40;;;;;;;6.90;4.57;;;;;;;20.75;32.16;101254.28;5024006;28;20519;-80
2023/05/05 07:52:08;;;;;;;6.07;4.57;;;;;;;20.77;32.29;101251.31;5026034;28;20076;-79
2023/05/05 07:54:36;;;;;;;7.13;4.13;;;;;;;20.79;32.06;101254.75;5005374;28;20049;-80
2023/05/05 07:57:04;;;;;;;7.10;4.60;;;;;;;20.82;31.87;101257.16;5011000;28;20076;-80
2023/05/05 07:59:31;;;;;;;5.45;4.43;;;;;;;20.83;32.17;101253.31;5020029;28;20045;-82
2023/05/05 08:01:59;;;;;;;6.35;4.40;;;;;;;20.84;32.22;101249.50;5005807;28;20045;-83
2023/05/05 08:04:28;;;;;;;5.38;4.28;;;;;;;20.87;31.88;101248.22;5011532;28;20052;-79
2023/05/05 08:06:57;;;;;;;6.22;4.70;;;;;;;20.85;31.97;101244.78;5008270;28;20428;-84
2023/05/05 08:09:24;;;;;;;6.05;4.47;;;;;;;20.85;32.02;101240.09;5024216;28;20108;-79
2023/05/05 08:11:52;;;;;;;5.50;4.50;;;;;;;20.86;31.98;101246.53;5008934;28;20449;-80
2023/05/05 08:14:20;;;;;;;6.15;4.68;;;;;;;20.86;32.39;101241.78;5010019;28;20052;-81
2023/05/05 08:16:48;;;;;;;6.18;4.35;;;;;;;20.89;32.44;101241.41;5001549;28;20054;-79
2023/05/05 08:19:16;;;;;;;6.80;4.28;;;;;;;20.93;32.31;101247.47;5030313;28;20037;-79
2023/05/05 08:21:56;;;;;;;7.13;4.25;;;;;;;20.99;32.34;101258.69;5019327;28;20472;-81
2023/05/05 08:24:27;;;;;;;6.53;4.85;;;;;;;21.04;32.33;101258.09;5007947;28;20225;-80
2023/05/05 08:26:55;;;;;;;5.90;4.47;;;;;;;21.11;32.79;101253.47;5016505;28;20064;-80
2023/05/05 08:29:24;;;;;;;6.55;4.55;;;;;;;21.18;32.50;101254.44;5029412;28;20049;-79
2023/05/05 08:31:52;;;;;;;6.28;4.85;;;;;;;21.27;32.49;101260.81;5010515;28;20072;-81
2023/05/05 08:34:20;;;;;;;6.22;4.78;;;;;;;21.35;32.11;101258.78;5022485;28;20040;-79
2023/05/05 08:36:49;;;;;;;6.55;4.30;;;;;;;21.44;32.12;101259.50;5013089;28;20104;-79
2023/05/05 08:39:18;;;;;;;6.05;3.60;;;;;;;21.56;32.02;101257.06;5024299;28;20042;-83
2023/05/05 08:41:46;;;;;;;5.60;3.95;;;;;;;21.63;32.47;101258.00;5004685;28;20461;-80
2023/05/05 08:44:14;;;;;;;5.95;4.30;;;;;;;21.71;31.95;101253.16;5031318;28;20034;-80
2023/05/05 08:46:43;;;;;;;7.00;4.40;;;;;;;21.82;31.93;101252.66;5024109;28;20077;-80
2023/05/05 08:49:14;;;;;;;6.57;4.43;;;;;;;21.93;31.78;101242.94;5018502;28;20038;-80
2023/05/05 08:51:44;;;;;;;5.53;4.53;;;;;;;21.98;32.03;101239.53;5009113;28;20045;-81
2023/05/05 08:54:26;;;;;;;6.32;4.40;;;;;;;22.10;31.36;101241.56;5020330;28;20046;-81
2023/05/05 08:57:01;;;;;;;5.88;4.22;;;;;;;22.20;31.59;101236.50;5012540;28;20054;-80
2023/05/05 08:59:31;;;;;;;5.50;4.03;;;;;;;22.27;31.77;101240.22;5011232;28;20049;-79
2023/05/05 09:02:34;;;;;;;6.40;4.07;;;;;;;22.38;31.29;101251.88;5009654;28;20046;-81
2023/05/05 09:05:23;;;;;;;4.90;3.55;;;;;;;22.46;30.84;101251.72;4988965;28;20071;-79
2023/05/05 09:07:51;;;;;;;5.38;3.42;;;;;;;22.54;30.61;101249.69;5014655;28;20104;-78
2023/05/05 09:10:23;;;;;;;5.07;3.45;;;;;;;22.62;30.67;101252.31;5032668;28;20041;-79
2023/05/05 09:12:51;;;;;;;4.38;3.15;;;;;;;22.63;30.71;101255.97;5033251;28;20049;-79
2023/05/05 09:15:19;;;;;;;4.10;3.22;;;;;;;22.68;30.39;101253.41;5028103;28;20212;-80
2023/05/05 09:17:47;;;;;;;4.97;3.20;;;;;;;22.71;30.26;101258.59;5018389;28;20046;-80
2023/05/05 09:20:15;;;;;;;5.18;3.15;;;;;;;22.72;30.37;101257.53;5019287;28;20038;-80
2023/05/05 09:22:46;;;;;;;6.15;3.40;;;;;;;22.73;30.00;101259.25;5038854;28;20049;-80
2023/05/05 09:25:15;;;;;;;5.25;2.97;;;;;;;22.74;30.31;101251.75;5039251;28;20049;-80
2023/05/05 09:27:46;;;;;;;4.57;2.75;;;;;;;22.73;30.45;101253.66;5036760;28;20057;-80
2023/05/05 09:30:18;;;;;;;4.88;3.45;;;;;;;22.74;30.49;101262.91;5021044;28;20056;-80
2023/05/05 09:32:49;;;;;;;4.78;3.38;;;;;;;22.72;30.30;101254.75;5041868;28;20081;-81
2023/05/05 09:35:18;;;;;;;4.87;3.50;;;;;;;22.74;30.36;101254.53;5026780;28;20072;-80
2023/05/05 09:37:49;;;;;;;4.65;3.22;;;;;;;22.77;30.40;101263.34;5022116;28;20045;-81
2023/05/05 09:40:20;;;;;;;4.38;3.28;;;;;;;22.80;30.10;101265.72;5029202;28;20045;-82
2023/05/05 09:43:01;;;;;;;5.30;3.15;;;;;;;22.83;29.52;101254.16;5012309;28;20049;-82
2023/05/05 09:45:29;;;;;;;5.65;3.42;;;;;;;22.82;29.99;101255.25;5021118;28;20057;-81
2023/05/05 09:47:57;;;;;;;5.35;3.65;;;;;;;22.86;30.21;101250.09;5015261;28;20056;-82
2023/05/05 09:50:29;;;;;;;4.63;3.25;;;;;;;22.88;30.24;101254.41;5025822;28;20049;-82
2023/05/05 09:52:59;;;;;;;4.32;3.10;;;;;;;22.91;30.17;101247.56;5013034;28;20085;-81
2023/05/05 09:55:27;;;;;;;4.28;2.83;;;;;;;22.92;30.22;101244.53;5029389;28;20042;-80
2023/05/05 09:57:57;;;;;;;5.68;3.30;;;;;;;22.98;30.29;101249.31;5040554;28;20049;-81
2023/05/05 10:00:38;;;;;;;4.10;2.50;;;;;;;23.04;30.03;101247.63;5037927;28;20057;-81
2023/05/05 10:03:06;;;;;;;4.03;2.65;;;;;;;23.04;29.87;101244.81;5034372;28;20034;-81
2023/05/05 10:05:47;;;;;;;4.40;2.70;;;;;;;23.16;29.58;101236.75;5016705;28;20062;-81
2023/05/05 10:08:15;;;;;;;3.83;2.35;;;;;;;23.19;30.09;101227.94;5029432;28;20442;-81
2023/05/05 10:10:47;;;;;;;2.80;1.80;;;;;;;23.30;29.48;101219.84;5037247;28;20073;-83
2023/05/05 10:13:21;;;;;;;3.40;2.10;;;;;;;23.38;29.36;101219.66;5024955;28;20042;-80
2023/05/05 10:15:53;;;;;;;2.85;1.50;;;;;;;23.43;29.45;101216.22;5015841;28;20057;-81
2023/05/05 10:18:23;;;;;;;2.72;1.80;;;;;;;23.51;29.41;101216.03;5008555;28;20048;-81
2023/05/05 10:20:55;;;;;;;2.33;1.60;;;;;;;23.61;28.82;101212.81;5007114;28;20087;-81
2023/05/05 10:23:28;;;;;;;2.58;1.67;;;;;;;23.68;28.65;101227.66;5022270;28;20048;-81
2023/05/05 10:26:01;;;;;;;3.72;2.28;;;;;;;23.74;28.51;101210.06;5036532;28;20708;-81
2023/05/05 10:28:37;;;;;;;2.75;1.80;;;;;;;23.82;28.52;101207.09;5026247;28;20504;-81
2023/05/05 10:31:10;;;;;;;3.60;1.90;;;;;;;23.89;28.45;101194.00;5028023;28;20057;-81
2023/05/05 10:33:54;;;;;;;3.40;1.85;;;;;;;23.95;28.44;101195.06;5012154;28;20052;-80
2023/05/05 10:36:22;;;;;;;3.35;1.90;;;;;;;24.03;28.35;101189.25;5023467;28;20056;-81
2023/05/05 10:38:55;;;;;;;3.35;1.85;;;;;;;24.11;27.82;101194.63;5025510;28;20050;-81
2023/05/05 10:41:24;;;;;;;2.83;1.77;;;;;;;24.13;28.04;101190.53;5028363;28;20054;-82
2023/05/05 10:43:55;;;;;;;2.92;2.00;;;;;;;24.22;27.59;101195.91;5023240;28;20073;-81
2023/05/05 10:46:24;;;;;;;2.63;1.90;;;;;;;24.21;27.47;101191.41;5011678;28;20053;-81
2023/05/05 10:49:00;;;;;;;2.88;1.75;;;;;;;24.29;27.35;101192.03;5012693;28;20298;-81
2023/05/05 10:51:36;;;;;;;3.35;1.90;;;;;;;24.32;27.23;101185.16;5016630;28;20051;-82
2023/05/05 10:54:13;;;;;;;2.72;1.65;;;;;;;24.32;27.62;101197.19;5013018;28;20500;-81
2023/05/05 10:56:42;;;;;;;2.80;1.73;;;;;;;24.31;27.23;101189.88;5025087;28;20045;-82
2023/05/05 10:59:43;;;;;;;2.00;1.40;;;;;;;24.30;27.01;101190.97;5033727;28;20093;-79
2023/05/05 11:02:25;;;;;;;3.72;1.88;;;;;;;24.28;27.17;101187.50;5028363;28;20109;-79
2023/05/05 11:05:13;;;;;;;2.67;1.77;;;;;;;24.23;26.69;101195.72;5031832;28;20049;-79
2023/05/05 11:07:42;;;;;;;2.53;1.70;;;;;;;24.20;26.96;101186.88;5018458;28;20464;-79
2023/05/05 11:10:12;;;;;;;3.25;1.90;;;;;;;24.17;27.05;101190.09;5009557;28;20038;-82
2023/05/05 11:13:19;;;;;;;2.70;1.60;;;;;;;24.06;26.94;101194.41;5007454;28;20077;-79
2023/05/05 11:26:51;;;;;;;3.28;1.80;;;;;;;23.43;29.64;101213.41;5006773;28;20049;-80
2023/05/05 11:29:19;;;;;;;3.30;1.67;;;;;;;23.23;29.93;101216.16;5025258;28;20132;-83
2023/05/05 11:32:14;;;;;;;2.75;1.42;;;;;;;23.01;30.13;101218.16;5005685;28;20089;-83
2023/05/05 11:34:48;;;;;;;3.85;1.83;;;;;;;22.82;31.47;101205.00;5025473;28;20048;-85
2023/05/05 11:37:17;;;;;;;4.43;1.90;;;;;;;22.58;30.96;101192.44;5008250;28;20512;-85
2023/05/05 11:40:00;;;;;;;3.17;2.10;;;;;;;22.35;32.60;101191.78;5006134;28;20053;-83
2023/05/05 11:42:29;;;;;;;2.83;1.52;;;;;;;22.02;32.16;101197.09;5009623;28;20436;-84
2023/05/05 11:44:57;;;;;;;2.10;1.40;;;;;;;21.76;33.05;101200.50;5015805;28;20153;-84
2023/05/05 11:47:30;;;;;;;2.78;1.52;;;;;;;21.54;33.17;101201.56;5022992;28;20045;-83
2023/05/05 11:49:58;;;;;;;3.80;1.98;;;;;;;21.29;34.41;101200.19;5024915;28;20131;-84
2023/05/05 11:52:29;;;;;;;3.80;2.08;;;;;;;21.10;35.09;101202.53;5026848;28;20056;-85
2023/05/05 11:55:02;;;;;;;6.43;2.78;;;;;;;20.93;36.79;101201.03;5032154;28;20108;-85